Fishburn, United Kingdom
Current Conditions -  °F | °C
As of 1:20 PM on Sunday 23 Nov 2014 (Local Time) from EGNV Reporting Station
Few Clouds Few Clouds  
Wind Chill: 42°   Ceiling: Unl
Heat Index: 46°   Visibility: 6mi
Dew Point: 39°   Wind: 8mph
Humidity: 76%   Direction: 290°WNW
Pressure: 30"   Gusts: NA
Location:  54.68°N, 1.44°W
Report Text: EGNV 231320Z 29007KT 9999 FEW015 08/04 Q1016
Loading
Personal Weather Stations






























Interactive Weather Map New forecast layout! Learn more

10-Day Weather Forecast

Advertisements
Track Severe Weather on mobile